createdAt,value
2022-09-11T00:00:05.473Z,47.50
2022-09-11T00:05:10.637Z,47.50
2022-09-11T00:10:13.676Z,47.70
2022-09-11T00:15:16.825Z,47.10
2022-09-11T00:20:21.481Z,47.20
2022-09-11T00:25:24.553Z,47.80
2022-09-11T00:30:28.245Z,47.40
2022-09-11T00:35:33.194Z,47.50
2022-09-11T00:40:37.387Z,47.20
2022-09-11T00:45:40.670Z,47.10
2022-09-11T00:50:45.707Z,47.10
2022-09-11T00:55:54.015Z,47.30
2022-09-11T01:00:58.045Z,47.20
2022-09-11T01:06:02.732Z,47.00
2022-09-11T01:11:27.104Z,47.00
2022-09-11T01:16:39.683Z,47.30
2022-09-11T01:22:07.182Z,47.30
2022-09-11T01:27:36.960Z,47.70
2022-09-11T01:33:00.820Z,47.50
2022-09-11T01:38:09.480Z,47.50
2022-09-11T01:43:17.229Z,47.20
2022-09-11T01:48:24.400Z,47.40
2022-09-11T01:53:32.381Z,47.30
2022-09-11T01:58:38.020Z,47.50
2022-09-11T02:03:47.183Z,47.50
2022-09-11T02:08:54.412Z,48.30
2022-09-11T02:14:05.097Z,47.50
2022-09-11T02:19:12.542Z,47.60
2022-09-11T02:24:16.751Z,47.30
2022-09-11T02:29:21.492Z,47.20
2022-09-11T02:34:28.293Z,47.30
2022-09-11T02:39:57.355Z,47.50
2022-09-11T02:45:10.512Z,47.80
2022-09-11T02:50:23.720Z,48.70
2022-09-11T02:55:32.033Z,48.10
2022-09-11T03:00:36.672Z,47.90
2022-09-11T03:05:40.322Z,47.90
2022-09-11T03:10:44.919Z,47.70
2022-09-11T03:15:49.456Z,47.70
2022-09-11T03:20:52.545Z,48.10
2022-09-11T03:25:56.020Z,48.00
2022-09-11T03:31:00.941Z,48.10
2022-09-11T03:36:04.810Z,48.30
2022-09-11T03:41:09.329Z,48.30
2022-09-11T03:46:13.895Z,48.20
2022-09-11T03:51:17.529Z,48.60
2022-09-11T03:56:21.149Z,48.30
2022-09-11T04:01:25.960Z,48.20
2022-09-11T04:06:29.069Z,48.60
2022-09-11T04:11:36.700Z,48.40
2022-09-11T04:16:41.869Z,48.40
2022-09-11T04:21:44.956Z,48.90
2022-09-11T04:26:48.493Z,48.50
2022-09-11T04:31:52.989Z,48.70
2022-09-11T04:36:56.489Z,49.20
2022-09-11T04:41:59.563Z,48.90
2022-09-11T04:47:04.181Z,48.90
2022-09-11T04:52:07.440Z,49.60
2022-09-11T04:57:10.532Z,49.40
2022-09-11T05:02:15.212Z,49.30
2022-09-11T05:07:18.444Z,49.90
2022-09-11T05:12:21.572Z,49.30
2022-09-11T05:17:26.026Z,49.50
2022-09-11T05:22:29.121Z,50.00
2022-09-11T05:27:32.168Z,49.50
2022-09-11T05:32:36.607Z,49.70
2022-09-11T05:37:39.677Z,50.10
2022-09-11T05:42:42.744Z,49.90
2022-09-11T05:47:48.005Z,50.10
2022-09-11T05:52:51.297Z,50.60
2022-09-11T05:57:54.772Z,50.10
2022-09-11T06:02:59.629Z,50.40
2022-09-11T06:08:03.095Z,50.90
2022-09-11T06:13:06.189Z,50.50
2022-09-11T06:18:10.650Z,50.80
2022-09-11T06:23:14.069Z,51.20
2022-09-11T06:28:17.740Z,50.80
2022-09-11T06:33:22.796Z,51.00
2022-09-11T06:38:25.957Z,51.60
2022-09-11T06:43:29.816Z,51.20
2022-09-11T06:48:34.436Z,51.30
2022-09-11T06:53:37.505Z,51.50
2022-09-11T06:58:41.272Z,50.80
2022-09-11T07:03:47.016Z,51.00
2022-09-11T07:08:52.433Z,51.50
2022-09-11T07:13:55.542Z,51.40
2022-09-11T07:19:00.255Z,51.00
2022-09-11T07:24:04.433Z,51.60
2022-09-11T07:29:07.621Z,51.30
2022-09-11T07:34:12.116Z,51.50
2022-09-11T07:39:15.292Z,51.80
2022-09-11T07:44:18.606Z,51.20
2022-09-11T07:49:24.069Z,51.50
2022-09-11T07:54:29.120Z,52.30
2022-09-11T07:59:32.395Z,51.70
2022-09-11T08:04:36.914Z,51.50
2022-09-11T08:09:40.253Z,52.00
2022-09-11T08:14:44.696Z,51.50
2022-09-11T08:19:49.309Z,51.60
2022-09-11T08:24:52.460Z,51.80
2022-09-11T08:29:55.945Z,51.60
2022-09-11T08:35:00.613Z,51.90
2022-09-11T08:40:04.093Z,52.40
2022-09-11T08:45:11.773Z,52.30
2022-09-11T08:50:22.075Z,52.50
2022-09-11T08:55:33.908Z,53.20
2022-09-11T09:00:44.968Z,53.40
2022-09-11T09:05:56.457Z,53.20
2022-09-11T09:11:06.144Z,54.00
2022-09-11T09:16:19.194Z,54.40
2022-09-11T09:21:28.088Z,54.70
2022-09-11T09:26:38.617Z,54.70
2022-09-11T09:31:44.368Z,54.80
2022-09-11T09:37:00.190Z,54.20
2022-09-11T09:42:24.831Z,54.20
2022-09-11T09:47:29.804Z,53.90
2022-09-11T09:52:36.257Z,53.30
2022-09-11T09:57:40.560Z,53.80
2022-09-11T10:02:45.624Z,53.80
2022-09-11T10:07:52.601Z,53.30
2022-09-11T10:13:17.594Z,53.10
2022-09-11T10:18:34.115Z,52.20
2022-09-11T10:23:46.836Z,51.70
2022-09-11T10:28:50.813Z,51.60
2022-09-11T10:33:56.872Z,52.20
2022-09-11T10:39:03.212Z,52.30
2022-09-11T10:44:12.757Z,51.30
2022-09-11T10:49:21.149Z,50.90
2022-09-11T10:54:40.544Z,50.50
2022-09-11T10:59:54.391Z,50.70
2022-09-11T11:04:58.902Z,50.20
2022-09-11T11:10:15.189Z,50.10
2022-09-11T11:15:34.104Z,48.80
2022-09-11T11:20:50.241Z,50.00
2022-09-11T11:26:07.218Z,49.20
2022-09-11T11:31:23.434Z,48.90
2022-09-11T11:36:34.349Z,47.70
2022-09-11T11:41:44.923Z,48.60
2022-09-11T11:46:52.374Z,49.10
2022-09-11T11:52:01.634Z,48.70
2022-09-11T11:57:13.417Z,47.70
2022-09-11T12:02:22.633Z,46.80
2022-09-11T12:07:27.703Z,47.80
2022-09-11T12:12:35.181Z,47.50
2022-09-11T12:17:40.240Z,47.30
2022-09-11T12:22:45.230Z,47.20
2022-09-11T12:27:55.645Z,46.90
2022-09-11T12:33:01.175Z,46.40
2022-09-11T12:38:13.662Z,47.20
2022-09-11T12:43:29.655Z,47.10
2022-09-11T12:48:38.882Z,45.30
2022-09-11T12:53:47.550Z,45.90
2022-09-11T12:58:59.516Z,44.30
2022-09-11T13:04:08.145Z,44.10
2022-09-11T13:09:21.987Z,44.50
2022-09-11T13:14:51.824Z,45.20
2022-09-11T13:20:10.735Z,44.90
2022-09-11T13:25:16.451Z,44.10
2022-09-11T13:30:22.735Z,44.20
2022-09-11T13:35:28.065Z,43.60
2022-09-11T13:40:35.761Z,44.20
2022-09-11T13:45:41.405Z,44.10
2022-09-11T13:50:44.742Z,44.30
2022-09-11T13:55:49.865Z,44.30
2022-09-11T14:00:55.534Z,44.50
2022-09-11T14:06:01.085Z,43.20
2022-09-11T14:11:11.217Z,42.00
2022-09-11T14:16:25.125Z,42.20
2022-09-11T14:21:35.373Z,40.60
2022-09-11T14:26:42.582Z,39.40
2022-09-11T14:31:47.079Z,40.40
2022-09-11T14:36:57.519Z,40.90
2022-09-11T14:48:25.716Z,40.70
2022-09-11T14:53:55.907Z,41.50
2022-09-11T14:58:59.513Z,41.30
2022-09-11T15:04:04.509Z,42.30
2022-09-11T15:09:17.468Z,41.10
2022-09-11T15:14:44.647Z,39.80
2022-09-11T15:19:47.819Z,41.20
2022-09-11T15:24:51.002Z,39.80
2022-09-11T15:29:54.877Z,40.70
2022-09-11T15:34:59.545Z,40.10
2022-09-11T15:40:02.837Z,41.20
2022-09-11T15:45:07.872Z,41.60
2022-09-11T15:50:13.006Z,41.60
2022-09-11T15:55:16.264Z,40.80
2022-09-11T16:00:19.499Z,40.70
2022-09-11T16:05:23.962Z,40.60
2022-09-11T16:10:29.112Z,39.60
2022-09-11T16:15:33.820Z,39.10
2022-09-11T16:20:39.352Z,39.60
2022-09-11T16:25:44.009Z,39.10
2022-09-11T16:30:50.713Z,40.30
2022-09-11T16:36:05.332Z,40.20
2022-09-11T16:41:12.389Z,40.00
2022-09-11T16:46:18.073Z,40.30
2022-09-11T16:51:23.449Z,40.90
2022-09-11T16:56:27.818Z,41.10
2022-09-11T17:01:30.925Z,41.30
2022-09-11T17:06:35.533Z,41.50
2022-09-11T17:11:39.595Z,41.60
2022-09-11T17:16:43.693Z,41.80
2022-09-11T17:21:48.229Z,42.00
2022-09-11T17:26:51.320Z,42.90
2022-09-11T17:32:16.832Z,42.00
2022-09-11T17:37:20.214Z,42.20
2022-09-11T17:42:23.852Z,42.30
2022-09-11T17:47:32.025Z,42.30
2022-09-11T17:52:37.043Z,42.80
2022-09-11T17:57:44.459Z,42.70
2022-09-11T18:02:50.056Z,42.60
2022-09-11T18:07:55.884Z,42.60
2022-09-11T18:12:59.269Z,42.80
2022-09-11T18:18:02.467Z,42.70
2022-09-11T18:23:06.931Z,42.80
2022-09-11T18:28:11.644Z,42.90
2022-09-11T18:33:16.647Z,42.60
2022-09-11T18:38:21.290Z,43.30
2022-09-11T18:43:24.449Z,42.70
2022-09-11T18:48:27.517Z,42.80
2022-09-11T18:53:32.034Z,43.00
2022-09-11T18:58:37.712Z,43.20
2022-09-11T19:03:43.671Z,43.10
2022-09-11T19:08:49.206Z,43.20
2022-09-11T19:13:53.824Z,43.20
2022-09-11T19:18:57.050Z,42.90
2022-09-11T19:24:02.880Z,42.80
2022-09-11T19:29:09.628Z,42.90
2022-09-11T19:34:13.693Z,42.90
2022-09-11T19:39:19.281Z,42.80
2022-09-11T19:44:25.232Z,43.00
2022-09-11T19:49:29.995Z,42.90
2022-09-11T19:54:35.411Z,42.60
2022-09-11T19:59:38.855Z,42.60
2022-09-11T20:04:41.921Z,42.80
2022-09-11T20:09:46.460Z,42.60
2022-09-11T20:14:49.513Z,42.50
2022-09-11T20:19:52.716Z,42.60
2022-09-11T20:24:57.631Z,42.60
2022-09-11T20:30:00.891Z,42.70
2022-09-11T20:35:04.661Z,42.80
2022-09-11T20:40:11.546Z,42.90
2022-09-11T20:45:15.827Z,43.00
2022-09-11T20:50:19.910Z,42.90
2022-09-11T20:55:24.405Z,42.90
2022-09-11T21:00:28.570Z,42.80
2022-09-11T21:05:31.701Z,42.80
2022-09-11T21:10:37.904Z,42.90
2022-09-11T21:15:43.980Z,43.00
2022-09-11T21:20:54.817Z,42.80
2022-09-11T21:25:59.588Z,42.20
2022-09-11T21:31:02.825Z,42.30
2022-09-11T21:36:07.107Z,43.00
2022-09-11T21:41:12.886Z,42.80
2022-09-11T21:46:16.102Z,42.90
2022-09-11T21:51:21.256Z,42.80
2022-09-11T21:56:27.203Z,42.90
2022-09-11T22:01:31.787Z,43.00
2022-09-11T22:06:38.285Z,43.10
2022-09-11T22:11:43.785Z,43.20
2022-09-11T22:16:49.137Z,43.20
2022-09-11T22:21:54.884Z,43.20
2022-09-11T22:26:59.324Z,43.10
2022-09-11T22:32:03.874Z,42.90
2022-09-11T22:37:07.330Z,42.70
2022-09-11T22:42:17.843Z,42.80
2022-09-11T22:47:20.925Z,42.90
2022-09-11T22:52:24.064Z,42.70
2022-09-11T22:57:29.308Z,42.90
2022-09-11T23:02:32.518Z,43.10
2022-09-11T23:07:35.566Z,43.00
2022-09-11T23:12:40.921Z,43.00
2022-09-11T23:17:44.120Z,43.00
2022-09-11T23:22:47.217Z,42.90
2022-09-11T23:27:51.997Z,42.70
2022-09-11T23:32:55.181Z,42.20
2022-09-11T23:37:58.279Z,42.60
2022-09-11T23:43:02.948Z,42.70
2022-09-11T23:48:06.052Z,43.00
2022-09-11T23:53:09.409Z,43.10
2022-09-11T23:58:13.848Z,42.90
